• Join FlightAware (Why Join?)
  • Login
  • US Flag 
01:28AM EDT


 

Airport Tracker/Info


-or-


 

Live Flight TrackerFlight Track Log ✈ SWA499 ✈ 02-May-2013 ✈ KMCI - KBWI

Flight Track Log - Related Links

Times and Time Zones

All times are in EDT time to prevent confusion due to time zone crossing. See the SWA499 flight status page for this flight to view local times or setup timezone preferences in your user account.

Time Position Orientation Groundspeed Altitude Reporting Facility
EDT Latitude Longitude Course Direction KTS MPH feet Rate Location/Type
02:39PM 39.3333 -94.6833 33° Northeast 163 188 4,800  Level Kansas City TRACON
02:40PM 39.3425 -94.5972 82° East 231 266 6,700 2,640 Climbing Kansas City Center
02:41PM 39.3506 -94.4814 85° East 290 334 10,700 3,180 Climbing Kansas City Center
02:42PM 39.3583 -94.3678 85° East 335 386 13,300 2,880 Climbing Kansas City Center
02:43PM 39.3689 -94.2206 85° East 365 420 16,700 2,940 Climbing Kansas City Center
02:44PM 39.3761 -94.0872 86° East 386 444 19,400 2,880 Climbing Kansas City Center
02:46PM 39.3883 -93.9264 84° East 401 461 22,700 1,980 Climbing Kansas City Center
02:47PM 39.4061 -93.7844 81° East 416 479 23,500 1,620 Climbing Kansas City Center
02:48PM 39.4283 -93.6361 79° East 425 489 26,100 2,220 Climbing Kansas City Center
02:49PM 39.4461 -93.4825 81° East 437 503 28,200 2,100 Climbing Kansas City Center
02:50PM 39.4694 -93.2897 81° East 453 521 30,500 1,980 Climbing Kansas City Center
02:51PM 39.4881 -93.1244 82° East 467 537 32,300 2,040 Climbing Kansas City Center
02:52PM 39.5069 -92.9586 82° East 469 540 34,800 2,040 Climbing Kansas City Center
02:53PM 39.5244 -92.7981 82° East 464 534 36,600 1,500 Climbing Kansas City Center
02:54PM 39.5428 -92.6394 81° East 458 527 37,900 1,080 Climbing Kansas City Center
02:55PM 39.5528 -92.4453 86° East 463 533 38,900 840 Climbing Kansas City Center
02:56PM 39.5511 -92.2806 91° East 461 531 39,700 720 Climbing Kansas City Center
02:57PM 39.5475 -92.1114 92° East 470 541 40,400 600 Climbing Kansas City Center
02:58PM 39.5433 -91.9392 92° East 479 551 41,000 240 Climbing Kansas City Center
02:59PM 39.5389 -91.7719 92° East 475 547 41,000  Level Kansas City Center
03:00PM 39.5319 -91.5717 93° East 471 542 41,000  Level Kansas City Center
03:01PM 39.5272 -91.4025 92° East 472 543 41,000  Level Kansas City Center
03:02PM 39.5225 -91.2528 92° East 471 542 41,000  Level Kansas City Center
03:03PM 39.5150 -91.0483 93° East 473 544 41,000  Level Kansas City Center
03:04PM 39.5083 -90.8797 93° East 471 542 41,000  Level Kansas City Center
03:05PM 39.5017 -90.7111 93° East 470 541 41,000  Level Kansas City Center
03:06PM 39.4936 -90.5458 94° East 465 535 41,000  Level Kansas City Center
03:07PM 39.4864 -90.3792 93° East 464 534 41,000  Level Kansas City Center
03:08PM 39.4794 -90.2133 93° East 461 531 41,000  Level Kansas City Center
03:09PM 39.4758 -90.0469 92° East 462 532 41,000  Level Kansas City Center
03:10PM 39.4817 -89.8814 87° East 461 531 41,000  Level Kansas City Center
03:11PM 39.4861 -89.6864 88° East 455 524 41,000  Level Kansas City Center
03:12PM 39.4900 -89.5217 88° East 456 525 41,000  Level Kansas City Center
03:13PM 39.4939 -89.3581 88° East 456 525 41,000  Level Kansas City Center
03:14PM 39.4981 -89.2039 88° East 455 524 41,000  Level Kansas City Center
03:15PM 39.5042 -89.0086 88° East 455 524 41,000  Level Kansas City Center
03:16PM 39.5106 -88.8453 87° East 456 525 41,000  Level Kansas City Center
03:17PM 39.5286 -88.6844 82° East 454 522 41,000  Level Kansas City Center
03:18PM 39.5450 -88.5294 82° East 456 525 41,000  Level Kansas City Center
03:20PM 39.5592 -88.3681 83° East 452 520 41,000  Level Kansas City Center
03:21PM 39.5778 -88.1736 83° East 451 519 41,000  Level Kansas City Center
03:22PM 39.5922 -88.0128 83° East 448 516 41,000  Level Kansas City Center
03:23PM 39.6058 -87.8531 84° East 446 513 41,000  Level Kansas City Center
03:23PM 39.6069 -87.8214 87° East 446 513 41,000  Level Indianapolis Center
03:24PM 39.6228 -87.6631 83° East 445 512 41,000  Level Indianapolis Center
03:25PM 39.6361 -87.5039 84° East 445 512 41,000  Level Indianapolis Center
03:26PM 39.6533 -87.3128 83° East 446 513 41,000  Level Indianapolis Center
03:27PM 39.6650 -87.1531 85° East 447 514 41,000  Level Indianapolis Center
03:28PM 39.6789 -86.9950 83° East 445 512 41,000  Level Indianapolis Center
03:29PM 39.6914 -86.8356 84° East 445 512 41,000  Level Indianapolis Center
03:30PM 39.7039 -86.6769 84° East 444 511 41,000  Level Indianapolis Center
03:31PM 39.7192 -86.4856 84° East 446 513 41,000  Level Indianapolis Center
03:32PM 39.7292 -86.3458 85° East 446 513 41,000  Level Indianapolis Center
03:33PM 39.7406 -86.1844 85° East 447 514 41,000  Level Indianapolis Center
03:34PM 39.7561 -85.9906 84° East 445 512 41,000  Level Indianapolis Center
03:35PM 39.7683 -85.8308 84° East 446 513 41,000  Level Indianapolis Center
03:36PM 39.7792 -85.6719 85° East 445 512 41,000  Level Indianapolis Center
03:37PM 39.7894 -85.5142 85° East 441 507 41,000  Level Indianapolis Center
03:38PM 39.8006 -85.3531 85° East 446 513 41,000  Level Indianapolis Center
03:39PM 39.8108 -85.1917 85° East 450 518 41,000  Level Indianapolis Center
03:40PM 39.8233 -84.9992 85° East 448 516 41,000  Level Indianapolis Center
03:42PM 39.8328 -84.8439 85° East 448 516 41,000  Level Indianapolis Center
03:43PM 39.8439 -84.6831 85° East 444 511 41,000  Level Indianapolis Center
03:44PM 39.8539 -84.5200 85° East 448 516 41,000  Level Indianapolis Center
03:45PM 39.8631 -84.3589 86° East 445 512 41,000  Level Indianapolis Center
03:46PM 39.8739 -84.1697 86° East 446 513 41,000  Level Indianapolis Center
03:47PM 39.8825 -84.0092 86° East 443 510 41,000  Level Indianapolis Center
03:48PM 39.8903 -83.8492 86° East 441 507 41,000  Level Indianapolis Center
03:49PM 39.9006 -83.6872 85° East 441 507 41,000  Level Indianapolis Center
03:50PM 39.9092 -83.5336 86° East 443 510 41,000  Level Indianapolis Center
03:51PM 39.9172 -83.3775 86° East 436 502 41,000  Level Indianapolis Center
03:52PM 39.9256 -83.2028 86° East 430 495 41,000  Level Indianapolis Center
03:53PM 39.9328 -83.0453 87° East 430 495 41,000  Level Indianapolis Center
03:54PM 39.9403 -82.8897 86° East 428 493 41,000  Level Indianapolis Center
03:55PM 39.9475 -82.7308 87° East 435 501 41,000  Level Indianapolis Center
03:56PM 39.9547 -82.5464 87° East 436 502 41,000  Level Indianapolis Center
03:57PM 39.9614 -82.3864 87° East 438 504 41,000  Level Indianapolis Center
03:58PM 39.9686 -82.2242 87° East 444 511 41,000  Level Indianapolis Center
03:59PM 39.9750 -82.0633 87° East 442 509 41,000  Level Indianapolis Center
04:00PM 39.9814 -81.9022 87° East 441 507 41,000  Level Indianapolis Center
04:01PM 39.9872 -81.7300 87° East 439 505 41,000  Level Indianapolis Center
04:02PM 39.9928 -81.5706 87° East 438 504 41,000  Level Indianapolis Center
04:03PM 39.9867 -81.4119 93° East 434 499 41,000  Level Indianapolis Center
04:04PM 39.9656 -81.2542 100° East 440 506 41,000  Level Indianapolis Center
04:05PM 39.9453 -81.1022 100° East 438 504 41,000  Level Indianapolis Center
04:06PM 39.9372 -81.0108 97° East 439 505 41,000  Level Cleveland Center
04:07PM 39.9167 -80.8564 100° East 439 505 41,000  Level Cleveland Center
04:08PM 39.8961 -80.7131 101° East 439 505 41,000  Level Cleveland Center
04:09PM 39.8753 -80.5614 100° East 434 499 41,000  Level Cleveland Center
04:10PM 39.8522 -80.4072 101° East 429 494 41,000  Level Cleveland Center
04:11PM 39.8311 -80.2478 100° East 434 499 41,000 -540 Level Cleveland Center
04:12PM 39.8097 -80.0939 100° East 434 499 40,000 -1,800 Descending Cleveland Center
04:13PM 39.7861 -79.9400 101° East 434 499 37,500 -2,460 Descending Cleveland Center
04:15PM 39.7353 -79.5797 100° East 419 482 31,800 -2,340 Descending Washington Center
04:16PM 39.7150 -79.4331 100° East 409 471 29,700 -2,100 Descending Washington Center
04:17PM 39.6944 -79.2917 101° East 409 471 27,700 -1,980 Descending Washington Center
04:18PM 39.6756 -79.1558 100° East 395 455 25,800 -1,380 Descending Washington Center
04:19PM 39.6500 -79.0306 105° East 377 434 25,000 -420 Descending Washington Center
04:20PM 39.6186 -78.8861 106° East 370 426 25,000 -360 Level Washington Center
04:21PM 39.5908 -78.7583 106° East 370 426 24,400 -1,200 Descending Washington Center
04:22PM 39.5628 -78.6333 106° East 365 420 22,600 -1,860 Descending Washington Center
04:23PM 39.5367 -78.5164 106° East 360 414 20,800 -1,800 Descending Washington Center
04:24PM 39.5100 -78.4025 107° East 342 394 19,100 -1,560 Descending Washington Center
04:25PM 39.4856 -78.2911 106° East 330 380 17,700 -1,860 Descending Washington Center
04:26PM 39.4589 -78.1719 106° East 330 380 15,400 -1,380 Descending Washington Center
04:27PM 39.4425 -78.0586 101° East 323 372 15,000 -240 Descending Washington Center
04:28PM 39.4428 -77.9456 90° East 317 365 15,000  Level Washington Center
04:29PM 39.4406 -77.8433 92° East 317 365 15,000  Level Washington Center
04:30PM 39.4425 -77.7306 89° East 311 358 15,000 -120 Level Washington Center
04:31PM 39.4425 -77.6150 90° East 311 358 14,800 -960 Descending Washington Center
04:32PM 39.4442 -77.5050 89° East 311 358 13,100 -1,800 Descending Washington Center
04:33PM 39.4439 -77.3975 90° East 311 358 11,300 -1,620 Descending Washington Center
04:33PM 39.4500 -77.3500 81° East 298 343 11,000 -480 Descending Potomac TRACON
04:34PM 39.4667 -77.2333 79° East 298 343 10,700 -840 Descending Potomac TRACON
04:35PM 39.4667 -77.1333 90° East 279 321 9,400 -1,380 Descending Potomac TRACON
04:36PM 39.4667 -77.0500 90° East 275 316 8,000 -1,320 Descending Potomac TRACON
04:37PM 39.4500 -76.9500 102° East 266 306 6,800 -1,200 Descending Potomac TRACON
04:38PM 39.4167 -76.8833 123° Southeast 270 311 5,700 -1,260 Descending Potomac TRACON
04:39PM 39.3333 -76.8500 163° South 260 299 4,400 -1,320 Descending Potomac TRACON
04:41PM 39.2465 -76.7465 142° Southeast  Level FlightAware Approximate
04:48PM 39.1754 -76.6683 142° Southeast  Level Estimated
04:49PM 39.1754 -76.6683 142° Southeast  Level Estimated
04:50PM 39.1754 -76.6683 142° Southeast  Level Estimated
04:51PM 39.1754 -76.6683 142° Southeast  Level Estimated
04:52PM 39.1754 -76.6683 142° Southeast  Level Estimated
04:53PM 39.1754 -76.6683 142° Southeast  Level Estimated
04:54PM 39.1754 -76.6683 142° Southeast  Level Estimated
04:55PM 39.1754 -76.6683 142° Southeast  Level Estimated
04:56PM 39.1754 -76.6683 142° Southeast  Level Estimated
04:57PM 39.1754 -76.6683 142° Southeast  Level Estimated